Time;durP1;ratioP1;P1;durP2;ratioP2;P2;SDS_P1;SDS_P2;PMS_P1;PMS_P2;Temp;Humidity;BMP_temperature;BMP_pressure;BME280_temperature;BME280_humidity;BME280_pressure;Samples;Min_cycle;Max_cycle;Signal;HPM_P1;HPM_P2
2022/11/08 00:01:38;;;;;;;41.15;23.90;;;;;;;13.36;52.30;94296.41;5089908;27;20033;-76
2022/11/08 00:04:09;;;;;;;39.15;20.38;;;;;;;13.28;52.34;94287.31;5077016;27;20114;-76
2022/11/08 00:14:48;;;;;;;35.07;18.97;;;;;;;13.07;52.16;94271.19;5091712;27;20077;-76
2022/11/08 00:17:15;;;;;;;34.70;18.83;;;;;;;13.25;52.15;94296.00;5088824;27;20031;-75
2022/11/08 00:19:41;;;;;;;33.38;18.42;;;;;;;13.12;52.14;94273.69;5089769;27;20055;-76
2022/11/08 00:22:08;;;;;;;40.60;20.65;;;;;;;13.26;52.30;94295.66;5089763;27;20044;-77
2022/11/08 00:24:36;;;;;;;31.92;18.95;;;;;;;13.09;52.34;94268.22;5087445;27;20565;-76
2022/11/08 00:27:07;;;;;;;36.20;18.48;;;;;;;13.25;51.94;94293.31;5092718;27;20063;-77
2022/11/08 00:29:36;;;;;;;37.25;19.35;;;;;;;13.19;52.10;94284.69;5091195;27;20146;-76
2022/11/08 00:32:03;;;;;;;32.15;18.67;;;;;;;13.22;51.92;94292.03;5090617;27;20031;-77
2022/11/08 00:34:29;;;;;;;37.28;19.50;;;;;;;13.12;51.81;94286.25;5088972;27;20035;-77
2022/11/08 00:36:54;;;;;;;36.70;17.65;;;;;;;12.97;52.06;94265.38;5089451;27;20407;-77
2022/11/08 00:39:20;;;;;;;37.40;20.08;;;;;;;13.04;52.05;94287.06;5089823;27;20024;-77
2022/11/08 00:41:45;;;;;;;41.65;20.33;;;;;;;13.08;52.25;94290.66;5086532;27;20032;-77
2022/11/08 00:44:11;;;;;;;31.38;18.40;;;;;;;13.06;52.28;94295.53;5089389;27;20707;-77
2022/11/08 00:46:37;;;;;;;37.45;20.42;;;;;;;13.06;52.44;94290.97;5091055;27;20072;-75
2022/11/08 00:49:06;;;;;;;37.58;20.33;;;;;;;12.90;52.58;94265.88;5088472;27;20102;-76
2022/11/08 00:51:32;;;;;;;37.30;20.33;;;;;;;12.97;52.51;94284.06;5089030;27;20080;-76
2022/11/08 00:53:57;;;;;;;37.25;19.73;;;;;;;12.99;52.86;94297.91;5070125;28;20483;-76
2022/11/08 00:56:22;;;;;;;41.17;20.55;;;;;;;12.94;52.94;94296.19;5089742;27;20106;-77
2022/11/08 00:58:48;;;;;;;42.08;21.67;;;;;;;12.73;53.29;94258.66;5087526;27;20098;-76
2022/11/08 01:01:17;;;;;;;40.53;21.25;;;;;;;12.94;52.86;94282.03;5088942;27;20624;-77
2022/11/08 01:03:44;;;;;;;47.58;22.90;;;;;;;13.01;52.92;94293.00;5088961;27;20101;-76
2022/11/08 01:06:11;;;;;;;41.58;22.50;;;;;;;12.86;52.98;94264.91;5090873;28;20134;-76
2022/11/08 01:08:37;;;;;;;47.05;23.02;;;;;;;12.84;53.01;94251.91;5089573;27;20170;-75
2022/11/08 01:11:06;;;;;;;40.55;22.25;;;;;;;13.08;53.12;94283.44;5068965;27;20153;-76
2022/11/08 01:13:32;;;;;;;42.72;20.88;;;;;;;13.12;52.77;94286.25;5087490;27;20505;-76
2022/11/08 01:16:04;;;;;;;36.10;19.17;;;;;;;13.11;52.94;94290.00;5087583;27;20513;-76
2022/11/08 01:18:29;;;;;;;38.88;20.45;;;;;;;13.03;53.25;94283.59;5087270;27;20039;-76
2022/11/08 01:20:54;;;;;;;33.13;20.02;;;;;;;13.04;53.41;94281.72;5085055;27;20055;-79
2022/11/08 01:23:20;;;;;;;34.65;19.25;;;;;;;12.96;53.23;94271.84;5089562;27;20490;-75
2022/11/08 01:25:47;;;;;;;31.25;18.45;;;;;;;13.02;53.16;94283.91;5090595;27;20019;-76
2022/11/08 01:28:13;;;;;;;36.20;21.30;;;;;;;12.96;53.38;94280.63;5092776;27;20054;-76
2022/11/08 01:30:41;;;;;;;36.15;20.20;;;;;;;12.94;53.35;94287.38;5085373;27;20095;-77
2022/11/08 01:33:07;;;;;;;43.40;20.92;;;;;;;12.83;53.47;94263.69;5087041;27;20027;-75
2022/11/08 01:35:33;;;;;;;34.65;20.75;;;;;;;12.85;53.99;94274.84;5072891;28;20034;-75
2022/11/08 01:37:59;;;;;;;37.38;20.33;;;;;;;12.99;53.87;94287.22;5087474;27;20961;-77
2022/11/08 01:40:26;;;;;;;34.40;20.00;;;;;;;13.03;53.72;94290.81;5090526;28;20046;-75
2022/11/08 01:42:52;;;;;;;36.78;20.73;;;;;;;12.87;53.65;94256.59;5087182;28;20020;-77
2022/11/08 01:45:55;;;;;;;33.45;19.88;;;;;;;13.11;53.76;94282.00;5092504;27;20433;-76
2022/11/08 01:48:23;;;;;;;37.88;20.52;;;;;;;13.02;53.74;94267.88;5088182;28;20114;-77
2022/11/08 01:50:49;;;;;;;36.58;19.92;;;;;;;13.14;53.62;94290.19;5087814;27;20102;-75
2022/11/08 01:53:15;;;;;;;36.70;21.02;;;;;;;13.00;53.68;94264.78;5091214;28;20224;-76
2022/11/08 01:55:41;;;;;;;37.38;20.58;;;;;;;13.14;53.62;94278.72;5088571;27;20028;-76
2022/11/08 01:58:12;;;;;;;40.25;21.35;;;;;;;13.20;53.61;94285.47;5070693;27;20432;-75
2022/11/08 02:00:39;;;;;;;31.73;19.35;;;;;;;13.20;53.31;94285.47;5087685;27;20082;-76
2022/11/08 02:03:08;;;;;;;41.08;20.98;;;;;;;13.22;53.57;94281.38;5088067;27;20593;-75
2022/11/08 02:05:33;;;;;;;37.15;21.58;;;;;;;12.85;53.93;94266.03;5087101;27;20016;-76
2022/11/08 02:08:05;;;;;;;37.47;21.55;;;;;;;13.08;53.90;94296.78;5087799;28;20020;-76
2022/11/08 02:10:35;;;;;;;40.72;24.20;;;;;;;13.09;53.83;94286.91;5088599;27;20145;-75
2022/11/08 02:13:01;;;;;;;39.03;24.08;;;;;;;13.12;53.74;94289.72;5090201;28;20031;-77
2022/11/08 02:15:27;;;;;;;37.05;21.15;;;;;;;13.09;53.59;94285.00;5088298;28;20022;-75
2022/11/08 02:17:55;;;;;;;45.40;23.65;;;;;;;13.12;53.53;94284.38;5090140;28;20024;-76
2022/11/08 02:20:20;;;;;;;39.30;20.65;;;;;;;13.16;53.66;94295.19;5090805;28;20055;-76
2022/11/08 02:23:12;;;;;;;39.65;22.35;;;;;;;13.18;53.91;94293.78;5088025;28;20020;-77
2022/11/08 02:25:38;;;;;;;36.03;21.13;;;;;;;13.13;53.88;94290.50;5089049;27;20008;-76
2022/11/08 02:28:03;;;;;;;33.88;20.10;;;;;;;13.01;53.74;94268.97;5089070;28;20036;-76
2022/11/08 02:30:36;;;;;;;36.97;20.75;;;;;;;12.96;54.65;94293.97;5089698;28;20051;-75
2022/11/08 02:33:18;;;;;;;35.63;20.42;;;;;;;13.05;54.58;94299.31;5073498;28;20433;-76
2022/11/08 02:35:47;;;;;;;42.40;21.23;;;;;;;13.07;54.83;94297.88;5086967;28;20626;-77
2022/11/08 02:38:12;;;;;;;40.92;21.48;;;;;;;13.13;54.57;94295.84;5090832;28;20035;-77
2022/11/08 02:40:52;;;;;;;40.15;20.90;;;;;;;13.15;54.70;94293.66;5088816;28;20032;-77
2022/11/08 02:43:18;;;;;;;34.90;22.13;;;;;;;13.21;54.40;94289.69;5090482;27;20053;-75
2022/11/08 02:45:44;;;;;;;31.58;19.55;;;;;;;13.22;54.32;94286.72;5093233;27;20046;-76
2022/11/08 02:48:10;;;;;;;33.40;19.60;;;;;;;13.24;54.38;94283.72;5075120;28;20059;-76
2022/11/08 02:50:35;;;;;;;35.17;19.30;;;;;;;13.20;54.35;94267.53;5090948;27;20019;-76
2022/11/08 02:53:01;;;;;;;33.17;19.73;;;;;;;13.17;54.17;94257.50;5093289;27;20031;-76
2022/11/08 02:55:28;;;;;;;34.08;19.95;;;;;;;13.19;54.24;94268.66;5091682;27;20554;-75
2022/11/08 02:57:53;;;;;;;39.65;18.52;;;;;;;12.48;55.93;94233.53;5093139;27;20023;-75
2022/11/08 03:00:19;;;;;;;38.65;20.35;;;;;;;12.64;55.94;94244.53;5091447;27;20030;-76
2022/11/08 03:02:44;;;;;;;36.60;20.02;;;;;;;12.83;55.91;94276.25;5092077;27;20369;-76
2022/11/08 03:05:10;;;;;;;30.40;19.67;;;;;;;12.70;55.92;94242.50;5092399;27;20024;-76
2022/11/08 03:07:35;;;;;;;35.22;20.30;;;;;;;12.94;55.63;94277.50;5091201;28;20585;-75
2022/11/08 03:10:01;;;;;;;31.98;18.67;;;;;;;12.91;55.65;94277.34;5093059;27;20020;-77
2022/11/08 03:12:26;;;;;;;28.20;18.60;;;;;;;12.97;55.42;94273.38;5077821;28;20772;-76
2022/11/08 03:14:51;;;;;;;31.75;19.20;;;;;;;12.80;55.29;94242.97;5075225;28;20032;-75
2022/11/08 03:17:17;;;;;;;31.13;19.13;;;;;;;13.04;55.09;94271.03;5091975;27;20068;-77
2022/11/08 03:19:42;;;;;;;34.40;20.13;;;;;;;13.18;54.79;94298.34;5093851;27;20406;-75
2022/11/08 03:22:07;;;;;;;35.13;19.77;;;;;;;13.17;54.97;94288.75;5090446;27;20490;-75
2022/11/08 03:24:33;;;;;;;34.95;18.83;;;;;;;13.18;55.04;94293.00;5088879;27;20040;-77
2022/11/08 03:26:59;;;;;;;31.40;18.98;;;;;;;13.19;54.63;94294.56;5090562;27;20443;-76
2022/11/08 03:29:24;;;;;;;38.25;21.63;;;;;;;13.18;54.98;94296.47;5089738;27;20449;-78
2022/11/08 03:31:50;;;;;;;37.22;20.88;;;;;;;13.18;55.05;94303.69;5092648;27;20030;-76
2022/11/08 03:34:15;;;;;;;33.67;19.40;;;;;;;12.99;54.86;94263.19;5090000;27;20053;-76
2022/11/08 03:36:41;;;;;;;35.97;21.17;;;;;;;13.25;54.76;94299.41;5093227;27;20020;-76
2022/11/08 03:39:06;;;;;;;36.88;21.48;;;;;;;13.21;54.87;94303.03;5088860;27;20031;-76
2022/11/08 03:41:31;;;;;;;36.83;21.35;;;;;;;13.22;54.82;94301.94;5080796;28;20479;-77
2022/11/08 03:43:57;;;;;;;35.05;20.98;;;;;;;13.17;54.72;94286.88;5088420;27;20032;-77
2022/11/08 03:46:22;;;;;;;33.08;21.20;;;;;;;13.23;54.55;94288.28;5092754;27;20590;-77
2022/11/08 03:48:47;;;;;;;40.13;21.55;;;;;;;13.14;54.74;94282.19;5088387;27;20028;-76
2022/11/08 03:51:13;;;;;;;37.20;22.25;;;;;;;13.29;55.05;94304.94;5090140;27;20100;-76
2022/11/08 03:53:38;;;;;;;45.50;21.60;;;;;;;13.10;54.88;94275.13;5090233;27;20020;-76
2022/11/08 03:56:04;;;;;;;38.83;21.48;;;;;;;13.27;55.05;94293.75;5090968;27;20036;-75
2022/11/08 03:58:29;;;;;;;46.17;22.23;;;;;;;13.20;55.21;94285.47;5090547;27;20107;-77
2022/11/08 04:00:57;;;;;;;46.90;22.05;;;;;;;13.29;55.69;94297.69;5091947;27;20035;-75
2022/11/08 04:03:22;;;;;;;43.72;23.38;;;;;;;13.32;56.12;94307.75;5092936;27;20155;-76
2022/11/08 04:05:47;;;;;;;54.33;29.85;;;;;;;13.11;56.12;94271.31;5090878;27;20034;-78
2022/11/08 04:08:13;;;;;;;45.63;24.27;;;;;;;13.20;56.26;94280.13;5088922;27;20028;-75
2022/11/08 04:10:38;;;;;;;49.05;23.92;;;;;;;13.37;56.43;94306.78;5088965;27;20024;-75
2022/11/08 04:15:53;;;;;;;54.22;25.95;;;;;;;13.41;56.34;94296.25;5088513;27;20149;-77
2022/11/08 04:21:18;;;;;;;54.95;26.52;;;;;;;13.39;56.72;94293.13;5090390;27;20055;-76
2022/11/08 04:23:44;;;;;;;80.05;34.17;;;;;;;13.34;57.12;94288.72;5090277;27;20016;-75
2022/11/08 04:26:13;;;;;;;75.43;36.70;;;;;;;13.42;57.04;94298.59;5089548;27;20518;-76
2022/11/08 04:28:40;;;;;;;55.63;27.85;;;;;;;13.45;56.59;94297.94;5091667;27;20562;-75
2022/11/08 04:31:17;;;;;;;40.85;21.83;;;;;;;13.44;56.86;94291.06;5088060;27;20586;-76
2022/11/08 04:33:43;;;;;;;35.95;19.38;;;;;;;13.42;57.04;94298.59;5088879;27;20024;-76
2022/11/08 04:36:12;;;;;;;33.67;19.17;;;;;;;13.34;56.79;94286.06;5089915;27;20030;-75
2022/11/08 04:38:38;;;;;;;32.28;18.63;;;;;;;13.40;56.69;94287.44;5072864;27;20118;-77
2022/11/08 04:41:10;;;;;;;36.72;19.70;;;;;;;13.43;56.74;94294.84;5077179;28;20096;-77
2022/11/08 04:43:35;;;;;;;35.88;18.50;;;;;;;13.36;56.92;94285.72;5069517;27;20028;-76
2022/11/08 04:46:10;;;;;;;34.28;18.50;;;;;;;13.38;57.00;94292.34;5093648;27;20575;-76
2022/11/08 04:48:36;;;;;;;33.17;18.73;;;;;;;13.39;57.04;94299.25;5087553;27;20039;-76
2022/11/08 04:51:05;;;;;;;34.17;19.00;;;;;;;13.29;56.97;94275.53;5091381;27;20467;-76
2022/11/08 04:53:30;;;;;;;32.75;19.15;;;;;;;13.33;57.31;94289.84;5090277;27;20034;-76
2022/11/08 04:56:05;;;;;;;28.52;17.20;;;;;;;13.31;57.31;94292.03;5087716;27;20442;-76
2022/11/08 04:58:38;;;;;;;32.03;18.65;;;;;;;13.17;57.55;94299.44;5092271;27;20024;-75
2022/11/08 05:01:06;;;;;;;27.98;17.90;;;;;;;13.06;58.28;94306.19;5091127;27;20133;-76
2022/11/08 05:03:32;;;;;;;35.72;18.58;;;;;;;12.91;58.45;94299.47;5089366;27;20095;-75
2022/11/08 05:06:02;;;;;;;36.97;18.63;;;;;;;12.75;58.75;94283.16;5086964;27;20023;-75
2022/11/08 05:08:28;;;;;;;32.28;18.20;;;;;;;12.84;58.93;94283.94;5091567;27;20106;-76
2022/11/08 05:11:05;;;;;;;31.75;18.35;;;;;;;12.89;58.95;94283.78;5087953;27;20028;-76
2022/11/08 05:13:31;;;;;;;34.95;17.83;;;;;;;13.09;58.50;94311.72;5090294;27;20089;-74
2022/11/08 05:16:01;;;;;;;34.80;19.10;;;;;;;12.97;58.68;94292.88;5087487;28;20471;-76
2022/11/08 05:18:28;;;;;;;36.90;18.65;;;;;;;12.87;58.89;94287.84;5089893;28;20031;-76
2022/11/08 05:23:41;;;;;;;35.22;18.20;;;;;;;12.71;59.84;94290.22;5091621;27;20103;-76
2022/11/08 05:26:08;;;;;;;34.65;19.88;;;;;;;12.76;59.25;94284.72;5087479;28;20482;-76
2022/11/08 05:28:33;;;;;;;35.30;19.70;;;;;;;12.99;59.17;94311.25;5091720;27;20500;-77
2022/11/08 05:30:58;;;;;;;37.65;19.83;;;;;;;12.93;59.40;94305.28;5087062;27;20024;-75
2022/11/08 05:33:24;;;;;;;40.08;19.67;;;;;;;12.94;59.45;94311.41;5093308;27;20103;-75
2022/11/08 05:35:50;;;;;;;36.47;17.40;;;;;;;12.64;59.39;94257.88;5070640;28;20391;-78
2022/11/08 05:38:16;;;;;;;36.03;19.83;;;;;;;13.03;58.98;94306.84;5079427;28;20106;-76
2022/11/08 05:40:42;;;;;;;34.58;18.08;;;;;;;13.07;58.79;94299.75;5088463;27;20043;-76
2022/11/08 05:43:08;;;;;;;30.42;19.00;;;;;;;12.89;59.00;94266.97;5088841;27;20134;-77
2022/11/08 05:45:33;;;;;;;34.97;19.00;;;;;;;13.06;58.68;94295.53;5090459;28;20471;-77
2022/11/08 05:48:02;;;;;;;35.55;19.65;;;;;;;13.17;58.89;94320.81;5089093;28;20143;-77
2022/11/08 05:50:32;;;;;;;37.50;21.45;;;;;;;13.18;58.80;94312.47;5086604;27;20031;-76
2022/11/08 05:52:58;;;;;;;37.80;22.23;;;;;;;13.17;58.71;94315.47;5088850;27;20035;-76
2022/11/08 05:55:23;;;;;;;36.55;22.15;;;;;;;13.19;58.71;94322.06;5087692;27;20046;-77
2022/11/08 05:57:49;;;;;;;42.10;23.60;;;;;;;13.22;58.83;94332.13;5090539;28;20376;-76
2022/11/08 06:00:14;;;;;;;40.38;24.05;;;;;;;13.23;58.91;94338.25;5088118;28;20448;-76
2022/11/08 06:02:40;;;;;;;45.58;25.98;;;;;;;13.20;58.91;94334.31;5074311;28;20018;-75
2022/11/08 06:05:06;;;;;;;45.17;24.75;;;;;;;12.97;59.37;94303.53;5089026;27;20024;-75
2022/11/08 06:07:32;;;;;;;39.90;24.35;;;;;;;13.13;59.56;94335.91;5085500;27;20020;-75
2022/11/08 06:09:58;;;;;;;65.80;39.90;;;;;;;13.08;59.17;94326.16;5090093;27;20054;-75
2022/11/08 06:12:23;;;;;;;84.47;55.15;;;;;;;13.19;58.95;94342.66;5069598;28;20038;-76
2022/11/08 06:14:48;;;;;;;73.50;45.47;;;;;;;13.12;59.24;94321.75;5084790;28;20048;-76
2022/11/08 06:17:14;;;;;;;52.10;31.73;;;;;;;13.34;58.89;94350.19;5090055;27;20039;-75
2022/11/08 06:19:39;;;;;;;49.25;29.50;;;;;;;13.34;59.05;94355.53;5084365;27;20142;-75
2022/11/08 06:22:05;;;;;;;48.65;30.13;;;;;;;13.22;58.87;94331.31;5089572;27;20054;-77
2022/11/08 06:24:30;;;;;;;49.60;27.20;;;;;;;13.24;59.03;94326.47;5067616;28;20107;-77
2022/11/08 06:26:56;;;;;;;39.65;25.80;;;;;;;13.38;58.75;94351.09;5085201;28;20030;-77
2022/11/08 06:29:22;;;;;;;49.95;28.13;;;;;;;13.25;58.73;94336.06;5089048;28;20024;-78
2022/11/08 06:31:47;;;;;;;54.92;31.58;;;;;;;13.49;58.74;94371.06;5086788;28;20481;-76
2022/11/08 06:34:12;;;;;;;52.30;28.58;;;;;;;13.28;58.64;94335.41;5088803;28;20057;-75
2022/11/08 06:36:38;;;;;;;42.42;24.30;;;;;;;13.19;58.87;94322.06;5087647;28;20031;-76
2022/11/08 06:39:03;;;;;;;41.50;24.60;;;;;;;13.50;58.63;94375.28;5088722;28;20272;-78
2022/11/08 06:41:29;;;;;;;48.53;23.00;;;;;;;13.58;58.34;94382.50;5087252;28;20169;-76
2022/11/08 06:43:55;;;;;;;37.70;22.55;;;;;;;13.58;58.32;94374.50;5084865;28;20031;-77
2022/11/08 06:46:20;;;;;;;38.03;22.30;;;;;;;13.63;58.31;94378.91;5084604;28;20024;-77
2022/11/08 06:48:46;;;;;;;40.10;22.48;;;;;;;13.49;57.91;94355.03;5087772;28;20024;-78
2022/11/08 06:51:12;;;;;;;38.30;22.30;;;;;;;13.49;57.76;94347.00;5078291;28;20035;-78
2022/11/08 06:53:37;;;;;;;35.28;21.45;;;;;;;13.55;57.64;94361.75;5058414;28;20032;-79
2022/11/08 06:56:03;;;;;;;38.92;22.73;;;;;;;13.66;57.67;94379.06;5086974;28;20567;-77
2022/11/08 06:58:29;;;;;;;35.70;21.58;;;;;;;13.73;57.69;94384.72;5086461;28;20024;-76
2022/11/08 07:00:54;;;;;;;42.85;21.95;;;;;;;13.59;57.35;94357.38;5086925;28;20031;-75
2022/11/08 07:03:20;;;;;;;38.70;22.85;;;;;;;13.69;57.59;94365.03;5084009;28;20950;-76
2022/11/08 07:05:45;;;;;;;37.75;22.10;;;;;;;13.79;57.44;94382.63;5070648;28;20061;-75
2022/11/08 07:08:11;;;;;;;35.25;21.60;;;;;;;13.71;57.33;94367.41;5087785;28;20080;-75
2022/11/08 07:10:39;;;;;;;35.95;21.00;;;;;;;13.66;57.66;94363.03;5085933;28;20034;-75
2022/11/08 07:13:10;;;;;;;42.28;25.45;;;;;;;13.85;57.83;94392.06;5084248;28;20024;-76
2022/11/08 07:15:36;;;;;;;48.28;25.30;;;;;;;13.87;57.55;94384.50;5071321;28;20030;-77
2022/11/08 07:18:10;;;;;;;43.22;24.52;;;;;;;13.85;57.93;94380.56;5084297;28;20097;-79
2022/11/08 07:20:36;;;;;;;40.80;23.55;;;;;;;13.91;57.71;94390.00;5082423;28;20044;-74
2022/11/08 07:23:02;;;;;;;39.45;22.40;;;;;;;13.81;57.67;94379.66;5081939;28;20024;-75
2022/11/08 07:25:29;;;;;;;36.00;20.77;;;;;;;13.67;57.34;94353.91;5086489;28;21013;-76
2022/11/08 07:27:55;;;;;;;33.70;20.25;;;;;;;13.93;57.33;94393.16;5083361;28;20594;-75
2022/11/08 07:30:21;;;;;;;34.70;20.25;;;;;;;13.86;56.97;94384.81;5087562;27;20038;-77
2022/11/08 07:32:46;;;;;;;38.97;20.63;;;;;;;13.77;57.09;94368.03;5065599;28;20020;-78
2022/11/08 07:35:12;;;;;;;35.20;19.83;;;;;;;13.95;56.95;94393.59;5067261;28;20691;-77
2022/11/08 07:37:37;;;;;;;38.75;22.65;;;;;;;13.92;56.84;94380.88;5086318;27;20085;-78
2022/11/08 07:40:03;;;;;;;37.10;19.20;;;;;;;13.89;56.94;94373.47;5090117;27;20036;-77
2022/11/08 07:42:28;;;;;;;34.83;20.48;;;;;;;13.93;57.22;94390.47;5089200;27;20622;-78
2022/11/08 07:44:54;;;;;;;34.10;19.13;;;;;;;13.97;57.17;94388.72;5086759;27;20032;-78
2022/11/08 07:47:19;;;;;;;32.85;20.33;;;;;;;13.97;57.37;94394.06;5086550;27;20032;-77
2022/11/08 07:49:44;;;;;;;40.50;20.63;;;;;;;13.81;57.57;94368.94;5086747;27;20071;-77
2022/11/08 07:52:10;;;;;;;38.67;20.75;;;;;;;13.85;57.54;94377.91;5088853;27;20690;-77
2022/11/08 07:54:35;;;;;;;40.38;22.00;;;;;;;13.99;57.76;94400.66;5087198;27;20032;-77
2022/11/08 07:57:01;;;;;;;38.55;22.92;;;;;;;13.97;57.82;94391.41;5090821;27;20093;-77
2022/11/08 07:59:26;;;;;;;42.75;22.75;;;;;;;14.00;57.61;94393.41;5087151;27;20031;-77
2022/11/08 08:01:51;;;;;;;35.05;19.58;;;;;;;13.72;57.90;94361.75;5088885;27;20031;-77
2022/11/08 08:04:17;;;;;;;34.00;20.30;;;;;;;13.89;58.21;94394.88;5087704;27;20023;-77
2022/11/08 08:06:42;;;;;;;32.80;19.15;;;;;;;13.80;58.34;94378.06;5087927;27;20028;-77
2022/11/08 08:09:08;;;;;;;34.65;19.85;;;;;;;13.79;58.02;94371.19;5086639;27;20028;-78
2022/11/08 08:11:33;;;;;;;30.63;16.90;;;;;;;13.84;58.13;94376.34;5085681;27;20567;-76
2022/11/08 08:13:58;;;;;;;30.77;17.85;;;;;;;13.93;58.22;94393.94;5086466;27;20024;-76
2022/11/08 08:16:24;;;;;;;26.08;15.23;;;;;;;13.96;58.21;94395.97;5086721;27;20537;-77
2022/11/08 08:18:49;;;;;;;26.20;15.85;;;;;;;13.81;58.34;94393.81;5088749;27;20036;-77
2022/11/08 08:21:15;;;;;;;25.25;14.77;;;;;;;13.71;58.26;94389.56;5086483;27;20052;-77
2022/11/08 08:23:40;;;;;;;31.40;15.45;;;;;;;13.68;58.42;94374.19;5085441;27;20028;-77
2022/11/08 08:26:06;;;;;;;26.80;16.45;;;;;;;13.57;58.58;94369.47;5086634;27;20145;-78
2022/11/08 08:28:31;;;;;;;29.20;16.13;;;;;;;13.59;59.19;94400.13;5087418;27;20034;-77
2022/11/08 08:30:57;;;;;;;33.63;15.65;;;;;;;13.66;59.16;94395.09;5088040;27;20039;-77
2022/11/08 08:33:23;;;;;;;27.30;15.23;;;;;;;13.58;58.96;94379.06;5086343;27;20769;-77
2022/11/08 08:35:51;;;;;;;26.80;14.60;;;;;;;13.74;58.87;94396.94;5085984;27;20035;-78
2022/11/08 08:38:16;;;;;;;29.83;14.95;;;;;;;13.64;58.93;94370.56;5085994;27;20444;-77
2022/11/08 08:40:42;;;;;;;27.20;14.57;;;;;;;13.60;58.38;94379.53;5088111;27;20027;-76
2022/11/08 08:43:07;;;;;;;25.85;14.98;;;;;;;13.72;58.76;94409.88;5087792;27;20777;-75
2022/11/08 08:45:34;;;;;;;27.40;16.45;;;;;;;13.70;58.92;94385.31;5087680;27;20024;-76
2022/11/08 08:47:59;;;;;;;25.48;16.30;;;;;;;13.70;59.02;94379.19;5087563;27;20015;-75
2022/11/08 08:50:27;;;;;;;28.67;15.43;;;;;;;13.92;58.92;94402.25;5085539;27;20053;-76
2022/11/08 08:52:58;;;;;;;25.55;16.30;;;;;;;13.62;59.70;94394.16;5085313;27;20020;-75
2022/11/08 08:55:23;;;;;;;28.38;15.32;;;;;;;13.42;61.45;94410.03;5084601;27;20085;-77
2022/11/08 08:57:49;;;;;;;24.85;14.13;;;;;;;13.44;61.54;94416.66;5084988;28;20023;-75
2022/11/08 09:00:15;;;;;;;27.88;15.15;;;;;;;12.93;61.83;94355.22;5086212;28;20422;-75
2022/11/08 09:02:41;;;;;;;23.90;13.68;;;;;;;13.33;61.50;94407.38;5084913;28;20018;-76
2022/11/08 09:05:07;;;;;;;23.17;13.88;;;;;;;13.41;61.60;94414.59;5084807;28;20029;-75
2022/11/08 09:07:33;;;;;;;26.38;14.07;;;;;;;13.29;61.39;94390.41;5085165;27;20032;-76
2022/11/08 09:09:58;;;;;;;25.83;15.50;;;;;;;13.38;61.32;94383.16;5088342;27;20108;-76
2022/11/08 09:12:23;;;;;;;24.92;14.02;;;;;;;13.01;61.07;94351.75;5085837;28;20020;-76
2022/11/08 09:14:49;;;;;;;21.75;13.93;;;;;;;13.32;61.71;94405.78;5084257;27;20028;-76
2022/11/08 09:17:14;;;;;;;30.02;16.38;;;;;;;13.23;62.10;94391.66;5086658;28;20590;-77
2022/11/08 09:19:40;;;;;;;24.98;14.70;;;;;;;13.57;61.47;94412.22;5088108;27;20044;-76
2022/11/08 09:22:05;;;;;;;26.10;15.02;;;;;;;13.54;61.35;94392.28;5085355;27;20053;-76
2022/11/08 09:24:33;;;;;;;28.92;14.63;;;;;;;13.77;61.13;94405.44;5086276;27;20032;-75
2022/11/08 09:27:02;;;;;;;31.05;14.57;;;;;;;13.61;60.71;94370.41;5083776;27;20042;-77
2022/11/08 09:29:28;;;;;;;27.83;15.70;;;;;;;13.95;60.13;94404.28;5087188;27;20067;-77
2022/11/08 09:31:55;;;;;;;25.17;14.90;;;;;;;13.98;59.60;94407.13;5085938;27;20028;-76
2022/11/08 09:34:20;;;;;;;25.27;14.50;;;;;;;13.74;59.52;94364.88;5084787;27;20611;-75
2022/11/08 09:36:45;;;;;;;24.13;13.77;;;;;;;14.09;59.15;94410.22;5069344;28;20042;-77
2022/11/08 09:39:11;;;;;;;27.30;14.90;;;;;;;14.07;59.05;94405.22;5086948;27;20031;-76
2022/11/08 09:42:07;;;;;;;23.48;13.73;;;;;;;14.14;59.04;94399.34;5087275;27;20036;-76
2022/11/08 09:44:59;;;;;;;23.27;14.80;;;;;;;14.23;59.05;94402.75;5086001;28;20052;-77
2022/11/08 09:47:36;;;;;;;23.63;14.60;;;;;;;13.80;58.65;94325.38;5084082;27;20047;-76
2022/11/08 09:50:02;;;;;;;21.98;13.30;;;;;;;14.31;58.29;94393.16;5083110;27;20705;-76
2022/11/08 09:52:29;;;;;;;27.25;14.95;;;;;;;14.30;58.41;94392.34;5070182;28;20027;-75
2022/11/08 09:55:20;;;;;;;24.08;14.52;;;;;;;14.21;58.58;94378.25;5086746;27;20035;-76
2022/11/08 09:57:58;;;;;;;28.45;14.52;;;;;;;14.26;58.47;94394.13;5084202;27;20879;-76
2022/11/08 10:00:24;;;;;;;24.48;14.20;;;;;;;14.17;58.53;94374.66;5087742;27;20027;-77
2022/11/08 10:02:49;;;;;;;24.98;14.90;;;;;;;14.30;58.21;94395.03;5083012;28;20031;-75
2022/11/08 10:05:17;;;;;;;25.48;14.15;;;;;;;13.88;57.75;94334.50;5077220;28;20136;-76
2022/11/08 10:08:02;;;;;;;22.63;13.13;;;;;;;14.38;58.08;94383.50;5084953;28;20435;-76
2022/11/08 10:11:04;;;;;;;21.73;13.38;;;;;;;14.34;57.55;94377.22;5088074;27;20051;-75
2022/11/08 10:13:51;;;;;;;21.95;12.30;;;;;;;14.32;57.00;94355.38;5004562;28;20683;-76
2022/11/08 10:16:31;;;;;;;21.83;12.30;;;;;;;14.54;56.54;94371.16;5080193;27;20615;-78
2022/11/08 10:19:16;;;;;;;18.92;12.70;;;;;;;14.41;56.72;94380.19;5085186;28;20063;-76
2022/11/08 10:22:01;;;;;;;21.33;12.80;;;;;;;14.46;56.42;94369.31;5085370;28;20119;-75
2022/11/08 10:24:44;;;;;;;21.58;12.40;;;;;;;14.47;55.92;94362.81;5086089;28;20020;-75
2022/11/08 10:27:14;;;;;;;24.67;13.43;;;;;;;14.47;55.81;94359.38;5084834;28;20066;-78
2022/11/08 10:29:43;;;;;;;23.02;13.40;;;;;;;14.48;55.79;94345.66;5069573;28;20376;-79
2022/11/08 10:32:21;;;;;;;25.13;13.40;;;;;;;14.70;55.81;94355.31;5084540;28;20036;-77
2022/11/08 10:34:57;;;;;;;22.65;13.35;;;;;;;14.76;54.43;94350.56;5086268;28;20019;-75
2022/11/08 10:37:23;;;;;;;21.08;12.55;;;;;;;14.82;54.54;94343.88;5067190;28;20039;-77
2022/11/08 10:40:23;;;;;;;20.67;12.27;;;;;;;14.73;54.24;94351.19;5085272;28;20023;-75
2022/11/08 10:43:01;;;;;;;27.05;13.68;;;;;;;14.49;54.99;94341.88;5066252;28;20479;-79
2022/11/08 10:45:26;;;;;;;20.70;13.52;;;;;;;14.58;54.94;94339.19;5084026;28;20023;-75
2022/11/08 10:47:53;;;;;;;24.33;14.20;;;;;;;14.65;54.50;94328.75;5067870;28;20020;-75
2022/11/08 10:50:32;;;;;;;21.90;14.10;;;;;;;14.74;54.08;94317.97;5084232;28;20019;-77
2022/11/08 10:53:00;;;;;;;20.92;14.15;;;;;;;14.90;53.39;94345.75;5067282;28;20040;-78
2022/11/08 10:55:46;;;;;;;22.02;13.05;;;;;;;14.73;53.85;94340.50;5085845;28;20501;-78
2022/11/08 10:58:39;;;;;;;21.17;12.15;;;;;;;14.36;54.26;94293.97;5084175;28;20575;-77
2022/11/08 11:01:19;;;;;;;23.67;13.40;;;;;;;14.66;53.86;94313.47;5076255;28;20074;-76
2022/11/08 11:03:45;;;;;;;24.73;13.68;;;;;;;14.55;53.48;94286.31;5088159;28;20031;-76
2022/11/08 11:06:29;;;;;;;24.45;14.18;;;;;;;14.99;53.04;94333.06;5090556;27;20020;-77
2022/11/08 11:08:58;;;;;;;28.67;14.00;;;;;;;15.13;52.94;94335.47;5092500;27;20126;-76
2022/11/08 11:11:31;;;;;;;21.92;13.52;;;;;;;15.09;53.30;94319.25;5094076;27;20019;-77
2022/11/08 11:14:10;;;;;;;26.30;13.93;;;;;;;15.23;52.46;94332.38;5090004;27;20145;-76
2022/11/08 11:16:36;;;;;;;24.45;13.55;;;;;;;15.19;52.23;94332.25;5088571;27;20036;-77
2022/11/08 11:19:04;;;;;;;22.25;13.82;;;;;;;15.10;52.13;94310.13;5090247;27;20027;-77
2022/11/08 11:21:36;;;;;;;24.33;14.13;;;;;;;15.25;51.42;94320.22;5079510;28;20125;-76
2022/11/08 11:24:17;;;;;;;21.95;12.63;;;;;;;15.34;51.06;94323.59;5075232;27;20571;-77
2022/11/08 11:26:47;;;;;;;25.10;13.65;;;;;;;15.44;51.28;94325.91;5091622;27;20076;-77
2022/11/08 11:29:17;;;;;;;25.52;13.43;;;;;;;15.54;50.87;94321.22;5091905;27;20799;-77
2022/11/08 11:31:48;;;;;;;19.33;11.57;;;;;;;15.59;50.33;94323.69;5091757;27;20047;-77
2022/11/08 11:34:31;;;;;;;22.08;12.55;;;;;;;15.64;50.08;94320.81;5086878;27;20472;-76
2022/11/08 11:36:59;;;;;;;22.73;12.40;;;;;;;15.63;49.61;94313.88;5091430;27;20016;-77
2022/11/08 11:39:36;;;;;;;18.25;11.20;;;;;;;15.55;49.52;94317.44;5069202;28;20036;-76